Beaman, Iowa
Current Conditions -  °F | °C
As of 8:08 AM on Saturday 22 Nov 2014 (Local Time) from KMIW Reporting Station
Haze Haze  
Wind Chill: 30°   Ceiling: 300
Heat Index: 38°   Visibility: 2.5mi
Dew Point: 38°   Wind: 12mph
Humidity: 100%   Direction: 200°SSW
Pressure: 29.88"   Gusts: NA
Location:  42.22°N, 92.82°W
Report Text: KMIW 221408Z AUTO 20010KT 2 1/2SM BR OVC003 03/03 A2988 RMK AO2 VIS 1 3/4V3 T00330033
Loading
Personal Weather Stations






























Interactive Weather Map New forecast layout! Learn more

10-Day Weather Forecast

Advertisements
Track Severe Weather on mobile